Time,TemperatureF,DewpointF,PressureIn,WindDirection,WindDirectionDegrees,WindSpeedMPH,WindSpeedGustMPH,Humidity,HourlyPrecipIn,Conditions,Clouds,dailyrainin,SoftwareType,DateUTC
2013-02-12 00:32:00,56.0,53.0,29.91,North,0,0.0,2.0,91,0.00,,,0.03,,2013-02-12 05:32:00,
2013-02-12 00:42:00,56.0,53.0,29.91,North,0,0.0,2.0,91,0.00,,,0.03,,2013-02-12 05:42:00,
2013-02-12 00:52:00,55.0,52.0,29.91,North,0,0.0,0.0,91,0.00,,,0.03,,2013-02-12 05:52:00,
2013-02-12 01:02:00,55.0,52.0,29.91,North,0,0.0,0.0,91,0.00,,,0.03,,2013-02-12 06:02:00,
2013-02-12 01:12:00,55.0,52.0,29.91,North,0,0.0,0.0,91,0.00,,,0.03,,2013-02-12 06:12:00,
2013-02-12 01:22:00,55.0,52.0,29.91,North,0,0.0,0.0,91,0.00,,,0.03,,2013-02-12 06:22:00,
2013-02-12 01:32:00,54.0,52.0,29.91,North,0,0.0,0.0,93,0.00,,,0.03,,2013-02-12 06:32:00,
2013-02-12 01:42:00,53.0,51.0,29.93,North,0,0.0,1.0,93,0.00,,,0.03,,2013-02-12 06:42:00,
2013-02-12 01:52:00,53.0,51.0,29.93,North,0,0.0,1.0,93,0.00,,,0.03,,2013-02-12 06:52:00,
2013-02-12 02:02:00,53.0,51.0,29.93,North,0,0.0,1.0,93,0.00,,,0.03,,2013-02-12 07:02:00,
2013-02-12 02:11:00,53.0,51.0,29.93,North,0,0.0,1.0,93,0.00,,,0.03,,2013-02-12 07:11:00,
2013-02-12 02:21:00,53.0,51.0,29.93,North,0,0.0,1.0,93,0.00,,,0.03,,2013-02-12 07:21:00,
2013-02-12 03:32:00,52.0,49.0,29.95,North,0,0.0,4.0,91,0.00,,,0.03,,2013-02-12 08:32:00,
2013-02-12 03:42:00,52.0,49.0,29.95,North,0,0.0,4.0,91,0.00,,,0.03,,2013-02-12 08:42:00,
2013-02-12 03:52:00,52.0,49.0,29.95,North,0,0.0,4.0,91,0.00,,,0.03,,2013-02-12 08:52:00,
2013-02-12 04:02:00,51.0,48.0,29.95,North,0,0.0,4.0,90,0.00,,,0.03,,2013-02-12 09:02:00,
2013-02-12 04:11:00,51.0,48.0,29.95,North,0,0.0,4.0,90,0.00,,,0.03,,2013-02-12 09:11:00,
2013-02-12 04:22:00,51.0,48.0,29.95,North,0,0.0,4.0,90,0.00,,,0.03,,2013-02-12 09:22:00,
2013-02-12 04:32:00,50.0,44.0,29.96,NW,305,3.0,12.0,81,0.00,,,0.03,,2013-02-12 09:32:00,
2013-02-12 04:42:00,50.0,44.0,29.96,NW,305,3.0,12.0,81,0.00,,,0.03,,2013-02-12 09:42:00,
2013-02-12 04:52:00,50.0,44.0,29.96,NW,305,3.0,12.0,81,0.00,,,0.03,,2013-02-12 09:52:00,
2013-02-12 05:01:00,50.0,41.0,29.95,North,0,0.0,5.0,71,0.00,,,0.03,,2013-02-12 10:01:00,
2013-02-12 05:11:00,50.0,41.0,29.95,North,0,0.0,5.0,71,0.00,,,0.03,,2013-02-12 10:11:00,
2013-02-12 05:22:00,50.0,41.0,29.95,North,0,0.0,5.0,71,0.00,,,0.03,,2013-02-12 10:22:00,
2013-02-12 05:32:00,48.0,41.0,29.96,North,0,0.0,0.0,76,0.00,,,0.03,,2013-02-12 10:32:00,
2013-02-12 05:43:00,48.0,41.0,29.96,North,0,0.0,0.0,76,0.00,,,0.03,,2013-02-12 10:43:00,
2013-02-12 05:52:00,48.0,41.0,29.96,North,0,0.0,0.0,76,0.00,,,0.03,,2013-02-12 10:52:00,
2013-02-12 06:02:00,46.0,40.0,29.98,North,0,0.0,1.0,78,0.00,,,0.03,,2013-02-12 11:02:00,
2013-02-12 06:11:00,45.0,38.0,29.97,North,0,0.0,0.0,77,0.00,,,0.03,,2013-02-12 11:11:00,
2013-02-12 06:22:00,45.0,38.0,29.97,North,0,0.0,0.0,77,0.00,,,0.03,,2013-02-12 11:22:00,
2013-02-12 06:32:00,44.0,37.0,29.98,North,0,0.0,0.0,75,0.00,,,0.03,,2013-02-12 11:32:00,
2013-02-12 06:42:00,44.0,37.0,29.98,North,0,0.0,0.0,75,0.00,,,0.03,,2013-02-12 11:42:00,
2013-02-12 06:52:00,44.0,36.0,29.98,North,0,0.0,2.0,73,0.00,,,0.02,,2013-02-12 11:52:00,
2013-02-12 07:01:00,44.0,36.0,29.99,North,0,0.0,0.0,72,0.00,,,0.02,,2013-02-12 12:01:00,
2013-02-12 07:11:00,43.0,34.0,30.00,North,0,0.0,2.0,70,0.00,,,0.02,,2013-02-12 12:11:00,
2013-02-12 07:21:00,43.0,34.0,30.00,North,0,0.0,2.0,70,0.00,,,0.02,,2013-02-12 12:21:00,
2013-02-12 07:32:00,42.0,35.0,29.99,North,0,0.0,1.0,76,0.00,,,0.02,,2013-02-12 12:32:00,
2013-02-12 07:42:00,42.0,35.0,29.99,North,0,0.0,1.0,76,0.00,,,0.02,,2013-02-12 12:42:00,
2013-02-12 07:52:00,42.0,35.0,29.99,North,0,0.0,1.0,76,0.00,,,0.02,,2013-02-12 12:52:00,
2013-02-12 08:02:00,42.0,35.0,29.99,North,0,0.0,1.0,76,0.00,,,0.02,,2013-02-12 13:02:00,
2013-02-12 08:11:00,42.0,34.0,30.02,North,0,0.0,0.0,74,0.00,,,0.00,,2013-02-12 13:11:00,
2013-02-12 08:22:00,42.0,34.0,30.02,North,0,0.0,0.0,74,0.00,,,0.00,,2013-02-12 13:22:00,
2013-02-12 08:32:00,42.0,36.0,30.03,North,0,0.0,0.0,80,0.00,,,0.00,,2013-02-12 13:32:00,
2013-02-12 08:42:00,42.0,36.0,30.03,North,0,0.0,0.0,80,0.00,,,0.00,,2013-02-12 13:42:00,
2013-02-12 08:52:00,43.0,36.0,30.03,North,0,0.0,2.0,77,0.00,,,0.00,,2013-02-12 13:52:00,
2013-02-12 09:01:00,43.0,36.0,30.03,North,0,0.0,2.0,77,0.00,,,0.00,,2013-02-12 14:01:00,
2013-02-12 09:12:00,43.0,36.0,30.03,North,0,0.0,2.0,77,0.00,,,0.00,,2013-02-12 14:12:00,
2013-02-12 09:21:00,48.0,36.0,30.03,North,0,0.0,3.0,64,0.00,,,0.00,,2013-02-12 14:21:00,
2013-02-12 09:32:00,50.0,33.0,30.03,North,0,0.0,6.0,52,0.00,,,0.00,,2013-02-12 14:32:00,
2013-02-12 09:42:00,50.0,33.0,30.03,North,0,0.0,6.0,52,0.00,,,0.00,,2013-02-12 14:42:00,
2013-02-12 09:52:00,51.0,33.0,30.03,WNW,288,1.0,6.0,50,0.00,,,0.00,,2013-02-12 14:52:00,
2013-02-12 10:02:00,52.0,31.0,30.04,NNW,347,3.0,9.0,45,0.00,,,0.00,,2013-02-12 15:02:00,
2013-02-12 10:11:00,52.0,33.0,30.05,North,0,0.0,6.0,48,0.00,,,0.00,,2013-02-12 15:11:00,
2013-02-12 10:21:00,52.0,33.0,30.05,North,0,0.0,6.0,48,0.00,,,0.00,,2013-02-12 15:21:00,
2013-02-12 10:32:00,54.0,30.0,30.06,NNE,22,1.0,6.0,40,0.00,,,0.00,,2013-02-12 15:32:00,
2013-02-12 10:42:00,54.0,30.0,30.06,NNE,22,1.0,6.0,40,0.00,,,0.00,,2013-02-12 15:42:00,
2013-02-12 10:52:00,54.0,30.0,30.05,NW,324,3.0,7.0,40,0.00,,,0.00,,2013-02-12 15:52:00,
2013-02-12 11:01:00,55.0,31.0,30.05,West,275,2.0,9.0,39,0.00,,,0.00,,2013-02-12 16:01:00,
2013-02-12 11:11:00,55.0,31.0,30.05,West,275,2.0,9.0,39,0.00,,,0.00,,2013-02-12 16:11:00,
2013-02-12 11:22:00,56.0,31.0,30.06,North,0,0.0,7.0,38,0.00,,,0.00,,2013-02-12 16:22:00,
2013-02-12 11:32:00,57.0,31.0,30.05,North,0,0.0,4.0,37,0.00,,,0.00,,2013-02-12 16:32:00,
2013-02-12 11:42:00,57.0,31.0,30.05,North,0,0.0,4.0,37,0.00,,,0.00,,2013-02-12 16:42:00,
2013-02-12 11:52:00,57.0,31.0,30.05,North,0,0.0,4.0,37,0.00,,,0.00,,2013-02-12 16:52:00,
2013-02-12 12:01:00,57.0,30.0,30.04,NNE,19,1.0,5.0,35,0.00,,,0.00,,2013-02-12 17:01:00,
2013-02-12 12:12:00,57.0,30.0,30.04,NNE,19,1.0,5.0,35,0.00,,,0.00,,2013-02-12 17:12:00,
2013-02-12 12:21:00,57.0,30.0,30.04,NNE,19,1.0,5.0,35,0.00,,,0.00,,2013-02-12 17:21:00,
2013-02-12 12:32:00,58.0,29.0,30.03,WNW,292,2.0,6.0,33,0.00,,,0.00,,2013-02-12 17:32:00,
2013-02-12 12:42:00,58.0,29.0,30.03,WNW,292,2.0,6.0,33,0.00,,,0.00,,2013-02-12 17:42:00,
2013-02-12 12:52:00,58.0,29.0,30.01,NNW,345,3.0,9.0,33,0.00,,,0.00,,2013-02-12 17:52:00,
2013-02-12 13:02:00,58.0,31.0,29.99,North,0,0.0,5.0,35,0.00,,,0.00,,2013-02-12 18:02:00,
2013-02-12 13:12:00,58.0,31.0,29.99,North,0,0.0,5.0,35,0.00,,,0.00,,2013-02-12 18:12:00,
2013-02-12 13:23:00,58.0,31.0,29.99,North,0,0.0,5.0,35,0.00,,,0.00,,2013-02-12 18:23:00,
2013-02-12 13:32:00,58.0,31.0,29.99,North,0,0.0,5.0,35,0.00,,,0.00,,2013-02-12 18:32:00,
2013-02-12 13:41:00,60.0,32.0,29.98,SE,137,1.0,5.0,35,0.00,,,0.00,,2013-02-12 18:41:00,
2013-02-12 13:52:00,60.0,32.0,29.98,SE,137,1.0,5.0,35,0.00,,,0.00,,2013-02-12 18:52:00,
2013-02-12 14:02:00,60.0,29.0,29.97,NNW,338,3.0,9.0,31,0.00,,,0.00,,2013-02-12 19:02:00,
2013-02-12 14:11:00,60.0,29.0,29.97,NNW,338,3.0,9.0,31,0.00,,,0.00,,2013-02-12 19:11:00,
2013-02-12 14:21:00,60.0,29.0,29.97,NNW,338,3.0,9.0,31,0.00,,,0.00,,2013-02-12 19:21:00,
2013-02-12 14:32:00,60.0,29.0,29.97,NNW,338,3.0,9.0,31,0.00,,,0.00,,2013-02-12 19:32:00,
2013-02-12 14:41:00,60.0,29.0,29.94,NW,315,1.0,7.0,31,0.00,,,0.00,,2013-02-12 19:41:00,
2013-02-12 14:52:00,60.0,29.0,29.94,NW,315,1.0,7.0,31,0.00,,,0.00,,2013-02-12 19:52:00,
2013-02-12 15:01:00,61.0,30.0,29.96,North,0,0.0,3.0,31,0.00,,,0.00,,2013-02-12 20:01:00,
2013-02-12 15:11:00,60.0,29.0,29.96,ESE,108,1.0,5.0,31,0.00,,,0.00,,2013-02-12 20:11:00,
2013-02-12 15:21:00,60.0,29.0,29.96,ESE,108,1.0,5.0,31,0.00,,,0.00,,2013-02-12 20:21:00,
2013-02-12 15:32:00,60.0,32.0,29.95,North,0,0.0,5.0,35,0.00,,,0.00,,2013-02-12 20:32:00,
2013-02-12 15:41:00,59.0,31.0,29.95,North,0,0.0,2.0,35,0.00,,,0.00,,2013-02-12 20:41:00,
2013-02-12 15:52:00,59.0,31.0,29.95,North,0,0.0,2.0,35,0.00,,,0.00,,2013-02-12 20:52:00,
2013-02-12 16:02:00,59.0,32.0,29.95,North,0,0.0,2.0,36,0.00,,,0.00,,2013-02-12 21:02:00,
2013-02-12 16:11:00,59.0,32.0,29.95,North,0,0.0,2.0,36,0.00,,,0.00,,2013-02-12 21:11:00,
2013-02-12 16:21:00,59.0,32.0,29.95,North,0,0.0,2.0,36,0.00,,,0.00,,2013-02-12 21:21:00,
2013-02-12 16:31:00,58.0,32.0,29.94,SE,129,1.0,3.0,37,0.00,,,0.00,,2013-02-12 21:31:00,
2013-02-12 16:42:00,58.0,34.0,29.95,North,0,0.0,2.0,41,0.00,,,0.00,,2013-02-12 21:42:00,
2013-02-12 16:52:00,58.0,34.0,29.95,North,0,0.0,2.0,41,0.00,,,0.00,,2013-02-12 21:52:00,
2013-02-12 17:01:00,57.0,35.0,29.95,SE,129,1.0,3.0,44,0.00,,,0.00,,2013-02-12 22:01:00,
2013-02-12 17:12:00,56.0,36.0,29.96,North,0,0.0,1.0,46,0.00,,,0.00,,2013-02-12 22:12:00,
2013-02-12 17:21:00,56.0,36.0,29.96,North,0,0.0,1.0,46,0.00,,,0.00,,2013-02-12 22:21:00,
2013-02-12 17:32:00,55.0,38.0,29.96,North,0,0.0,0.0,52,0.00,,,0.00,,2013-02-12 22:32:00,
2013-02-12 17:42:00,54.0,40.0,29.96,North,0,0.0,0.0,58,0.00,,,0.00,,2013-02-12 22:42:00,
2013-02-12 17:51:00,54.0,40.0,29.96,North,0,0.0,0.0,58,0.00,,,0.00,,2013-02-12 22:51:00,
2013-02-12 18:11:00,52.0,41.0,29.95,North,0,0.0,0.0,65,0.00,,,0.00,,2013-02-12 23:11:00,
2013-02-12 18:21:00,52.0,41.0,29.95,North,0,0.0,0.0,65,0.00,,,0.00,,2013-02-12 23:21:00,
2013-02-12 18:32:00,51.0,42.0,29.93,North,0,0.0,0.0,70,0.00,,,0.00,,2013-02-12 23:32:00,
2013-02-12 18:42:00,51.0,42.0,29.93,North,0,0.0,0.0,70,0.00,,,0.00,,2013-02-12 23:42:00,
2013-02-12 18:52:00,50.0,40.0,29.95,North,0,0.0,0.0,69,0.00,,,0.00,,2013-02-12 23:52:00,
2013-02-12 19:02:00,50.0,40.0,29.94,North,0,0.0,0.0,69,0.00,,,0.00,,2013-02-13 00:02:00,
2013-02-12 19:11:00,50.0,40.0,29.94,North,0,0.0,0.0,69,0.00,,,0.00,,2013-02-13 00:11:00,
2013-02-12 19:21:00,50.0,40.0,29.94,North,0,0.0,0.0,69,0.00,,,0.00,,2013-02-13 00:21:00,
2013-02-12 19:32:00,49.0,41.0,29.94,North,0,0.0,0.0,73,0.00,,,0.00,,2013-02-13 00:32:00,
2013-02-12 19:42:00,49.0,41.0,29.94,North,0,0.0,0.0,73,0.00,,,0.00,,2013-02-13 00:42:00,
2013-02-12 19:52:00,49.0,41.0,29.93,North,0,0.0,0.0,74,0.00,,,0.00,,2013-02-13 00:52:00,
2013-02-12 20:01:00,48.0,40.0,29.92,North,0,0.0,0.0,75,0.00,,,0.00,,2013-02-13 01:01:00,
2013-02-12 20:11:00,48.0,40.0,29.93,North,0,0.0,0.0,74,0.00,,,0.00,,2013-02-13 01:11:00,
2013-02-12 20:21:00,48.0,40.0,29.93,North,0,0.0,0.0,74,0.00,,,0.00,,2013-02-13 01:21:00,
2013-02-12 20:32:00,48.0,42.0,29.89,North,0,0.0,0.0,79,0.00,,,0.00,,2013-02-13 01:32:00,
2013-02-12 20:42:00,48.0,42.0,29.89,North,0,0.0,0.0,79,0.00,,,0.00,,2013-02-13 01:42:00,
2013-02-12 20:51:00,48.0,42.0,29.89,North,0,0.0,0.0,79,0.00,,,0.00,,2013-02-13 01:51:00,
2013-02-12 21:01:00,48.0,42.0,29.89,North,0,0.0,0.0,79,0.00,,,0.00,,2013-02-13 02:01:00,
2013-02-12 21:11:00,48.0,42.0,29.89,North,0,0.0,0.0,79,0.00,,,0.00,,2013-02-13 02:11:00,
2013-02-12 21:22:00,48.0,42.0,29.89,North,0,0.0,0.0,79,0.00,,,0.00,,2013-02-13 02:22:00,
2013-02-12 21:32:00,47.0,41.0,29.95,North,0,0.0,0.0,78,0.00,,,0.00,,2013-02-13 02:32:00,
2013-02-12 21:42:00,47.0,41.0,29.95,North,0,0.0,0.0,78,0.00,,,0.00,,2013-02-13 02:42:00,
2013-02-12 21:52:00,47.0,41.0,29.96,North,0,0.0,0.0,79,0.00,,,0.00,,2013-02-13 02:52:00,
2013-02-12 22:01:00,47.0,41.0,29.95,North,0,0.0,0.0,78,0.00,,,0.00,,2013-02-13 03:01:00,
2013-02-12 22:11:00,47.0,41.0,29.95,North,0,0.0,0.0,78,0.00,,,0.00,,2013-02-13 03:11:00,
2013-02-12 22:21:00,47.0,41.0,29.95,North,0,0.0,0.0,78,0.00,,,0.00,,2013-02-13 03:21:00,
2013-02-12 22:32:00,47.0,41.0,29.96,North,0,0.0,0.0,81,0.00,,,0.00,,2013-02-13 03:32:00,
2013-02-12 22:42:00,47.0,41.0,29.96,North,0,0.0,0.0,81,0.00,,,0.00,,2013-02-13 03:42:00,
2013-02-12 22:52:00,47.0,41.0,29.95,North,0,0.0,0.0,81,0.00,,,0.00,,2013-02-13 03:52:00,
2013-02-12 23:01:00,47.0,41.0,29.95,North,0,0.0,0.0,81,0.00,,,0.00,,2013-02-13 04:01:00,
2013-02-12 23:11:00,47.0,41.0,29.95,North,0,0.0,0.0,81,0.00,,,0.00,,2013-02-13 04:11:00,
2013-02-12 23:21:00,47.0,42.0,29.96,North,0,0.0,0.0,82,0.00,,,0.00,,2013-02-13 04:21:00,
2013-02-12 23:32:00,47.0,41.0,29.93,North,0,0.0,0.0,81,0.00,,,0.00,,2013-02-13 04:32:00,
2013-02-12 23:42:00,47.0,42.0,29.91,North,0,0.0,0.0,82,0.00,,,0.00,,2013-02-13 04:42:00,
2013-02-12 23:51:00,47.0,42.0,29.91,North,0,0.0,0.0,82,0.00,,,0.00,,2013-02-13 04:51:00,